Time;durP1;ratioP1;P1;durP2;ratioP2;P2;SDS_P1;SDS_P2;PMS_P1;PMS_P2;Temp;Humidity;BMP_temperature;BMP_pressure;BME280_temperature;BME280_humidity;BME280_pressure;Samples;Min_cycle;Max_cycle;Signal;HPM_P1;HPM_P2
2021/03/28 00:01:40;;;;;;;68.83;19.53;;;;;;;6.79;72.36;100248.91;5037910;28;20287;-73
2021/03/28 00:04:10;;;;;;;86.20;29.83;;;;;;;6.40;74.95;100252.97;5029227;28;20227;-73
2021/03/28 00:06:54;;;;;;;60.10;18.90;;;;;;;5.93;77.70;100262.84;5038234;28;20281;-73
2021/03/28 00:09:26;;;;;;;65.57;19.83;;;;;;;5.75;79.86;100276.22;5027394;28;20217;-73
2021/03/28 00:12:02;;;;;;;56.43;19.07;;;;;;;5.70;80.03;100272.97;5039690;28;20276;-73
2021/03/28 00:14:56;;;;;;;67.73;20.67;;;;;;;5.98;79.74;100260.78;5026734;28;20208;-73
2021/03/28 00:17:33;;;;;;;67.57;21.40;;;;;;;6.19;77.30;100255.09;5013757;28;20207;-74
2021/03/28 00:20:10;;;;;;;62.03;19.97;;;;;;;6.18;77.38;100231.19;5028401;28;20662;-73
2021/03/28 00:22:42;;;;;;;64.00;22.77;;;;;;;6.10;77.37;100198.78;5028195;28;20188;-73
2021/03/28 00:25:15;;;;;;;61.57;19.70;;;;;;;6.54;76.45;100265.53;5028168;28;20275;-73
2021/03/28 00:27:50;;;;;;;59.03;19.43;;;;;;;6.58;75.39;100253.72;5030318;28;20193;-73
2021/03/28 00:30:29;;;;;;;67.57;19.33;;;;;;;6.57;75.27;100233.31;5031726;28;20220;-73
2021/03/28 00:33:01;;;;;;;73.20;23.00;;;;;;;6.59;74.99;100231.41;5031058;28;20227;-74
2021/03/28 00:35:32;;;;;;;67.63;20.57;;;;;;;6.74;74.27;100235.00;5030024;28;20204;-74
2021/03/28 00:38:11;;;;;;;68.23;19.50;;;;;;;6.41;74.46;100187.16;5032819;28;20202;-74
2021/03/28 00:40:42;;;;;;;63.10;21.77;;;;;;;6.71;74.63;100225.34;5029665;28;20213;-73
2021/03/28 00:43:19;;;;;;;60.63;18.27;;;;;;;6.74;73.96;100219.00;5041821;28;20198;-73
2021/03/28 00:45:53;;;;;;;64.30;21.47;;;;;;;6.80;73.63;100229.28;5021781;28;20278;-74
2021/03/28 00:48:23;;;;;;;61.77;19.07;;;;;;;6.81;73.64;100234.53;5056677;28;20278;-74
2021/03/28 00:50:57;;;;;;;70.63;20.10;;;;;;;6.79;74.37;100233.75;5028939;28;20229;-74
2021/03/28 00:53:48;;;;;;;56.70;17.83;;;;;;;6.81;73.66;100215.00;5025113;28;20200;-74
2021/03/28 00:56:21;;;;;;;58.83;20.00;;;;;;;6.66;73.20;100189.22;5024324;28;20202;-74
2021/03/28 00:58:59;;;;;;;66.43;21.00;;;;;;;6.77;74.02;100213.47;5017590;28;20208;-74
2021/03/28 01:02:05;;;;;;;58.27;20.13;;;;;;;6.68;74.57;100214.00;5030874;28;20697;-74
2021/03/28 01:04:47;;;;;;;62.43;19.33;;;;;;;6.66;75.08;100221.25;5022973;28;20242;-74
2021/03/28 01:07:22;;;;;;;61.90;18.53;;;;;;;6.66;74.04;100221.25;5009541;28;20645;-74
2021/03/28 01:10:42;;;;;;;62.13;18.63;;;;;;;6.69;73.53;100213.91;5035331;28;20303;-74
2021/03/28 01:13:47;;;;;;;69.73;19.60;;;;;;;6.72;73.28;100210.19;5026170;28;20208;-74
2021/03/28 01:16:48;;;;;;;62.13;18.60;;;;;;;6.74;73.50;100208.31;5031872;28;20214;-74
2021/03/28 01:19:51;;;;;;;67.20;21.17;;;;;;;6.78;73.19;100210.69;5041514;28;20288;-74
2021/03/28 01:22:22;;;;;;;61.10;18.60;;;;;;;6.80;73.15;100202.59;5039532;28;20701;-74
2021/03/28 01:25:00;;;;;;;57.73;18.63;;;;;;;6.83;72.70;100202.41;5013063;28;20203;-74
2021/03/28 01:27:31;;;;;;;77.67;20.57;;;;;;;6.77;72.99;100194.78;5031750;28;20572;-74
2021/03/28 01:30:10;;;;;;;59.60;18.83;;;;;;;6.85;72.83;100200.50;5028411;28;20234;-74
2021/03/28 01:32:43;;;;;;;67.33;19.03;;;;;;;6.84;73.51;100202.31;5033750;28;20286;-74
2021/03/28 01:35:21;;;;;;;67.50;18.57;;;;;;;6.87;72.74;100189.72;5029909;28;20201;-74
2021/03/28 01:37:54;;;;;;;64.33;20.20;;;;;;;6.88;72.87;100188.78;5020217;28;21290;-74
2021/03/28 01:40:27;;;;;;;55.03;18.53;;;;;;;6.80;72.67;100174.09;5027421;28;20685;-74
2021/03/28 01:43:10;;;;;;;67.70;19.10;;;;;;;6.89;72.70;100186.00;5026449;28;20193;-74
2021/03/28 01:45:46;;;;;;;72.53;19.03;;;;;;;6.66;72.70;100152.72;5031347;28;20216;-74
2021/03/28 01:48:37;;;;;;;56.53;17.83;;;;;;;6.90;72.99;100193.06;5031672;28;20644;-74
2021/03/28 01:51:35;;;;;;;58.07;18.07;;;;;;;6.91;72.83;100194.78;5018670;28;20213;-74
2021/03/28 01:54:09;;;;;;;61.03;18.23;;;;;;;6.88;73.62;100192.31;5030943;28;20683;-74
2021/03/28 01:56:44;;;;;;;60.30;19.23;;;;;;;6.69;73.96;100173.03;5022921;28;20291;-74
2021/03/28 01:59:27;;;;;;;63.77;18.73;;;;;;;6.74;74.53;100189.63;5034083;28;20652;-74
2021/03/28 02:02:02;;;;;;;62.10;19.93;;;;;;;6.50;75.38;100174.16;5032250;28;20210;-74
2021/03/28 02:04:43;;;;;;;60.37;18.50;;;;;;;6.52;76.59;100188.25;5035553;28;20195;-74
2021/03/28 02:07:29;;;;;;;112.30;45.13;;;;;;;6.47;76.77;100192.16;5031413;28;20203;-74
2021/03/28 02:10:10;;;;;;;62.43;20.30;;;;;;;6.07;77.56;100150.97;5028587;28;20235;-74
2021/03/28 02:12:45;;;;;;;64.20;20.10;;;;;;;6.40;77.07;100193.44;5019394;28;20654;-74
2021/03/28 02:15:49;;;;;;;66.83;21.73;;;;;;;6.47;76.76;100197.50;5025968;28;20626;-74
2021/03/28 02:18:24;;;;;;;56.37;17.40;;;;;;;6.54;77.71;100185.50;5002199;28;20218;-74
2021/03/28 02:20:58;;;;;;;53.53;18.63;;;;;;;6.64;76.69;100183.13;5029785;28;20273;-74
2021/03/28 02:23:40;;;;;;;68.67;20.77;;;;;;;6.69;76.53;100181.88;5029825;28;20727;-74
2021/03/28 02:26:22;;;;;;;58.87;18.00;;;;;;;6.74;76.33;100187.81;5027936;28;20199;-74
2021/03/28 02:28:58;;;;;;;71.10;21.13;;;;;;;6.80;75.86;100182.13;5030454;28;20198;-74
2021/03/28 02:31:35;;;;;;;54.57;17.73;;;;;;;6.84;75.89;100177.44;5012230;28;20723;-74
2021/03/28 02:34:18;;;;;;;62.87;18.40;;;;;;;6.76;75.83;100161.91;5012351;28;20608;-74
2021/03/28 02:36:59;;;;;;;65.83;18.00;;;;;;;6.80;75.16;100183.91;5030028;28;20662;-74
2021/03/28 02:39:39;;;;;;;49.63;17.00;;;;;;;6.62;75.49;100169.03;5025917;28;20207;-74
2021/03/28 02:42:29;;;;;;;59.90;18.60;;;;;;;6.77;76.13;100192.13;5029128;28;20209;-74
2021/03/28 02:45:00;;;;;;;64.03;17.03;;;;;;;6.62;75.33;100156.53;5028223;28;20207;-74
2021/03/28 02:47:48;;;;;;;54.43;18.13;;;;;;;6.80;74.86;100178.59;5029214;28;20205;-74
2021/03/28 02:50:54;;;;;;;61.10;18.93;;;;;;;6.85;74.65;100180.00;5028989;28;20227;-74
2021/03/28 02:53:32;;;;;;;57.23;17.10;;;;;;;6.84;74.33;100185.44;5027303;28;20217;-74
2021/03/28 02:56:18;;;;;;;60.37;17.93;;;;;;;6.85;73.98;100182.69;5012442;28;20237;-74
2021/03/28 02:59:02;;;;;;;64.00;17.97;;;;;;;6.88;73.75;100184.31;5030195;28;20201;-74
2021/03/28 03:01:54;;;;;;;60.00;17.23;;;;;;;6.88;73.87;100194.13;5012584;28;20208;-74
2021/03/28 03:04:42;;;;;;;54.67;15.70;;;;;;;6.65;73.44;100156.34;5019658;28;20201;-74
2021/03/28 03:07:27;;;;;;;45.57;16.10;;;;;;;6.89;73.76;100196.69;5030335;28;20700;-74
2021/03/28 03:10:34;;;;;;;49.87;15.80;;;;;;;6.88;73.64;100196.78;5030042;28;20306;-74
2021/03/28 03:13:14;;;;;;;54.57;16.30;;;;;;;6.89;73.38;100199.34;5012053;28;20227;-74
2021/03/28 03:15:48;;;;;;;45.20;15.53;;;;;;;6.89;73.63;100202.03;5030366;28;20662;-74
2021/03/28 03:19:06;;;;;;;50.37;15.43;;;;;;;6.91;73.21;100199.25;5021432;28;20280;-74
2021/03/28 03:22:27;;;;;;;46.50;14.93;;;;;;;6.87;73.19;100203.94;5025187;28;20208;-74
2021/03/28 03:25:45;;;;;;;39.63;13.43;;;;;;;6.66;73.53;100159.88;5020833;28;20604;-74
2021/03/28 03:28:39;;;;;;;38.00;14.43;;;;;;;6.90;73.41;100219.75;5011672;28;20204;-74
2021/03/28 03:31:33;;;;;;;47.10;14.97;;;;;;;6.92;72.89;100217.84;5000009;28;20600;-74
2021/03/28 03:34:24;;;;;;;45.63;14.60;;;;;;;6.93;72.68;100219.56;5022507;28;20234;-74
2021/03/28 03:37:13;;;;;;;40.67;14.60;;;;;;;6.92;72.88;100228.53;5025812;28;20219;-74
2021/03/28 03:39:52;;;;;;;44.83;13.77;;;;;;;6.94;72.94;100231.97;5029178;28;20192;-74
2021/03/28 03:42:36;;;;;;;42.30;14.77;;;;;;;6.94;72.87;100223.09;5029549;28;20211;-74
2021/03/28 03:45:38;;;;;;;42.00;14.23;;;;;;;6.89;72.78;100212.69;5017601;28;20201;-74
2021/03/28 03:48:18;;;;;;;43.43;13.67;;;;;;;6.92;72.78;100223.19;5029031;28;20262;-75
2021/03/28 03:51:13;;;;;;;45.10;13.50;;;;;;;6.82;72.98;100212.22;5023104;28;20687;-74
2021/03/28 03:53:50;;;;;;;44.97;13.50;;;;;;;6.75;72.81;100194.88;5026150;28;20563;-74
2021/03/28 03:56:23;;;;;;;41.33;14.13;;;;;;;6.92;72.45;100225.84;5029252;28;20205;-74
2021/03/28 03:59:08;;;;;;;27.70;11.13;;;;;;;6.95;72.68;100227.47;5029154;28;20202;-74
2021/03/28 04:01:45;;;;;;;34.70;12.57;;;;;;;6.97;72.50;100230.91;5028104;28;20556;-74
2021/03/28 04:04:20;;;;;;;35.13;11.40;;;;;;;6.96;73.16;100219.38;5002828;28;20209;-74
2021/03/28 04:07:14;;;;;;;27.63;10.70;;;;;;;6.90;72.83;100225.09;5031015;28;20685;-74
2021/03/28 04:09:53;;;;;;;32.23;11.50;;;;;;;6.92;72.75;100222.34;5026885;28;20210;-74
2021/03/28 04:12:43;;;;;;;39.37;15.77;;;;;;;6.93;73.02;100229.38;5030241;28;20686;-74
2021/03/28 04:15:24;;;;;;;38.57;18.00;;;;;;;6.80;72.85;100210.59;5024528;28;20227;-75
2021/03/28 04:18:24;;;;;;;35.87;15.87;;;;;;;7.00;73.02;100236.91;5024044;28;20223;-74
2021/03/28 04:21:00;;;;;;;34.73;12.90;;;;;;;7.01;72.31;100238.63;5009649;28;20254;-74
2021/03/28 04:23:45;;;;;;;36.73;12.97;;;;;;;6.84;72.62;100193.44;5032407;28;20275;-74
2021/03/28 04:26:31;;;;;;;31.57;12.27;;;;;;;7.18;72.41;100245.63;5032315;28;20214;-74
2021/03/28 04:28:59;;;;;;;47.77;25.63;;;;;;;7.11;72.41;100238.94;5032519;28;20598;-74
2021/03/28 04:31:42;;;;;;;31.93;13.37;;;;;;;7.13;72.10;100243.25;5032428;28;20331;-74
2021/03/28 04:34:16;;;;;;;20.07;8.60;;;;;;;7.19;71.63;100249.16;5032660;28;20259;-74
2021/03/28 04:36:56;;;;;;;16.37;7.70;;;;;;;7.13;71.78;100256.59;5023558;28;20196;-74
2021/03/28 04:39:42;;;;;;;7.37;3.87;;;;;;;7.09;72.20;100256.88;5032132;28;20214;-74
2021/03/28 04:42:45;;;;;;;7.20;2.57;;;;;;;6.97;73.22;100257.59;5027088;28;20198;-74
2021/03/28 04:45:44;;;;;;;4.33;1.90;;;;;;;6.46;73.64;100193.97;5031381;28;20207;-74
2021/03/28 04:48:48;;;;;;;2.30;1.67;;;;;;;6.79;73.55;100257.78;5030930;28;20200;-74
2021/03/28 04:52:14;;;;;;;1.30;1.10;;;;;;;6.79;73.41;100259.59;5032371;28;20236;-74
2021/03/28 04:55:16;;;;;;;1.30;1.00;;;;;;;6.75;73.24;100258.06;5002561;28;20290;-74
2021/03/28 04:58:14;;;;;;;0.37;0.37;;;;;;;6.67;73.24;100268.31;5030463;28;20199;-74
2021/03/28 05:01:11;;;;;;;1.00;0.40;;;;;;;6.69;73.22;100272.59;5018758;28;20207;-74
2021/03/28 05:04:12;;;;;;;0.57;0.57;;;;;;;6.66;73.87;100287.94;5031500;28;20207;-74
2021/03/28 05:07:04;;;;;;;2.33;0.80;;;;;;;6.56;74.13;100268.09;5020277;28;20596;-74
2021/03/28 05:10:19;;;;;;;0.70;0.70;;;;;;;6.60;73.98;100288.31;5029660;28;20199;-74
2021/03/28 05:13:21;;;;;;;0.50;0.50;;;;;;;6.63;73.54;100296.97;4976170;28;20649;-74
2021/03/28 05:16:30;;;;;;;0.93;0.90;;;;;;;6.41;73.90;100276.03;5030282;28;20206;-74
2021/03/28 05:19:38;;;;;;;0.33;0.33;;;;;;;6.58;73.12;100308.88;5022567;28;20215;-74
2021/03/28 05:22:47;;;;;;;0.60;0.60;;;;;;;6.56;73.69;100316.09;5031990;28;20199;-74
2021/03/28 05:25:34;;;;;;;0.40;0.37;;;;;;;6.48;73.41;100319.22;5011146;28;20217;-74
2021/03/28 05:28:54;;;;;;;0.50;0.40;;;;;;;6.39;73.80;100320.59;5013139;28;20208;-74
2021/03/28 05:31:53;;;;;;;0.50;0.50;;;;;;;6.03;73.73;100277.38;5025934;28;20637;-74
2021/03/28 05:34:40;;;;;;;0.63;0.53;;;;;;;6.21;74.28;100333.19;4967886;28;20230;-74
2021/03/28 05:37:26;;;;;;;0.53;0.53;;;;;;;6.17;74.12;100331.66;5030821;28;20207;-74
2021/03/28 05:40:28;;;;;;;0.37;0.37;;;;;;;5.89;74.83;100321.66;5030577;28;20269;-74
2021/03/28 05:43:31;;;;;;;0.30;0.30;;;;;;;6.03;74.69;100344.88;5012772;28;20199;-74
2021/03/28 05:46:43;;;;;;;0.10;0.10;;;;;;;5.82;74.68;100322.06;5028792;28;20214;-74
2021/03/28 05:49:27;;;;;;;0.20;0.20;;;;;;;5.86;73.95;100337.78;5019488;28;20219;-74
2021/03/28 05:52:19;;;;;;;0.20;0.20;;;;;;;5.89;74.50;100350.06;5029180;28;20676;-74
2021/03/28 05:55:28;;;;;;;0.40;0.40;;;;;;;5.93;74.42;100361.47;5029015;28;20212;-74
2021/03/28 05:58:37;;;;;;;0.20;0.20;;;;;;;5.89;74.56;100368.72;5023052;28;20281;-74
2021/03/28 06:01:43;;;;;;;0.33;0.33;;;;;;;5.75;74.27;100344.63;5019890;28;20192;-74
2021/03/28 06:07:41;;;;;;;0.40;0.40;;;;;;;5.78;74.87;100373.75;5100202;27;20567;-74
2021/03/28 06:10:43;;;;;;;0.30;0.30;;;;;;;5.67;74.66;100381.47;5102576;28;20279;-74
2021/03/28 06:13:47;;;;;;;0.40;0.40;;;;;;;5.66;74.96;100382.44;5106005;28;20251;-73
2021/03/28 06:16:26;;;;;;;0.30;0.30;;;;;;;5.58;75.05;100382.84;5093864;28;20723;-73
2021/03/28 06:19:23;;;;;;;0.60;0.60;;;;;;;5.49;75.21;100384.16;5100799;28;20720;-74
2021/03/28 06:22:18;;;;;;;0.30;0.30;;;;;;;5.41;75.04;100386.38;5094300;28;20630;-74
2021/03/28 06:25:03;;;;;;;0.30;0.30;;;;;;;5.28;75.33;100383.50;5069873;28;20319;-74
2021/03/28 06:28:16;;;;;;;1.77;1.67;;;;;;;5.27;75.47;100381.78;5092891;28;20217;-73
2021/03/28 06:31:17;;;;;;;18.17;8.23;;;;;;;5.28;75.60;100379.97;5105953;28;20205;-73
2021/03/28 06:34:30;;;;;;;2.30;1.80;;;;;;;5.11;75.64;100398.59;5087258;28;20648;-74
2021/03/28 06:37:41;;;;;;;2.10;1.83;;;;;;;5.20;75.79;100401.69;5074788;28;20611;-74
2021/03/28 06:40:37;;;;;;;0.90;0.90;;;;;;;5.01;75.88;100395.56;5105613;28;20207;-74
2021/03/28 06:43:35;;;;;;;2.23;2.13;;;;;;;4.96;75.74;100408.22;5100271;28;20772;-74
2021/03/28 06:46:18;;;;;;;1.00;1.00;;;;;;;5.04;75.73;100414.03;5099023;28;20322;-74
2021/03/28 06:49:31;;;;;;;0.60;0.60;;;;;;;4.97;75.53;100417.94;5098668;28;20316;-74
2021/03/28 06:52:16;;;;;;;2.20;1.97;;;;;;;5.02;75.93;100415.03;5084324;28;20209;-74
2021/03/28 06:55:19;;;;;;;1.80;1.67;;;;;;;5.01;76.20;100422.16;5098174;28;20295;-74
2021/03/28 06:58:22;;;;;;;4.67;4.27;;;;;;;5.05;75.93;100433.50;5095405;28;20195;-74
2021/03/28 07:01:26;;;;;;;1.90;1.70;;;;;;;4.99;75.82;100424.91;5084277;28;20679;-74
2021/03/28 07:04:22;;;;;;;0.83;0.83;;;;;;;4.97;75.98;100432.09;5091072;28;20622;-75
2021/03/28 07:07:01;;;;;;;1.70;1.57;;;;;;;4.98;75.79;100440.94;5089720;28;20232;-75
2021/03/28 07:10:03;;;;;;;0.73;0.73;;;;;;;4.82;75.59;100437.31;5093011;28;20291;-74
2021/03/28 07:12:52;;;;;;;3.00;2.17;;;;;;;4.76;75.81;100437.63;5098097;28;20655;-74
2021/03/28 07:15:35;;;;;;;2.67;1.80;;;;;;;4.43;76.20;100397.56;5085677;28;20200;-73
2021/03/28 07:18:46;;;;;;;2.03;1.83;;;;;;;4.73;76.51;100443.09;5080259;28;20197;-73
2021/03/28 07:21:27;;;;;;;0.40;0.33;;;;;;;4.65;76.53;100452.31;5077936;28;20816;-74
2021/03/28 07:24:39;;;;;;;0.60;0.50;;;;;;;4.60;76.62;100454.31;5071780;28;20323;-73
2021/03/28 07:27:41;;;;;;;0.57;0.57;;;;;;;4.30;76.06;100464.59;5071153;28;20239;-74
2021/03/28 07:30:40;;;;;;;0.30;0.30;;;;;;;4.32;77.02;100465.41;5072134;28;20321;-73
2021/03/28 07:33:44;;;;;;;0.30;0.30;;;;;;;4.24;76.63;100461.34;5079798;28;20567;-74
2021/03/28 07:36:28;;;;;;;0.33;0.33;;;;;;;4.19;77.33;100471.34;5083229;28;20203;-74
2021/03/28 07:39:28;;;;;;;0.40;0.40;;;;;;;4.22;77.28;100468.53;5080524;28;20370;-74
2021/03/28 07:42:49;;;;;;;0.57;0.57;;;;;;;4.02;77.17;100474.78;5077929;28;20704;-74
2021/03/28 07:45:41;;;;;;;0.30;0.30;;;;;;;3.95;77.34;100492.75;5016291;28;20236;-74
2021/03/28 07:48:53;;;;;;;0.40;0.30;;;;;;;3.94;77.35;100483.06;5084790;28;20689;-73
2021/03/28 07:51:59;;;;;;;0.40;0.40;;;;;;;3.97;77.78;100488.22;5091284;28;20228;-70
2021/03/28 07:55:04;;;;;;;1.50;0.40;;;;;;;3.91;77.69;100498.28;5079742;28;20858;-70
2021/03/28 07:57:50;;;;;;;1.53;0.50;;;;;;;3.78;77.95;100505.06;5074565;28;20239;-70
2021/03/28 08:00:59;;;;;;;1.00;0.57;;;;;;;3.76;77.83;100506.94;5077456;28;20283;-71
2021/03/28 08:04:03;;;;;;;0.83;0.50;;;;;;;3.07;78.01;100390.50;5041016;28;20662;-71
2021/03/28 08:07:05;;;;;;;0.23;0.23;;;;;;;3.70;78.44;100508.06;5074741;28;20247;-71
2021/03/28 08:09:56;;;;;;;0.37;0.37;;;;;;;3.67;78.52;100493.13;5073144;28;20216;-70
2021/03/28 08:12:42;;;;;;;0.30;0.30;;;;;;;3.79;78.27;100515.63;5080074;28;20565;-70
2021/03/28 08:15:31;;;;;;;0.47;0.47;;;;;;;3.64;78.31;100509.16;5081060;28;20666;-70
2021/03/28 08:18:33;;;;;;;4.30;0.60;;;;;;;3.65;78.66;100494.09;5075363;28;20205;-71
2021/03/28 08:21:16;;;;;;;0.97;0.47;;;;;;;3.59;78.88;100508.50;5072605;28;20212;-70
2021/03/28 08:24:28;;;;;;;0.40;0.40;;;;;;;3.59;78.81;100512.97;5097615;28;20283;-71
2021/03/28 08:27:56;;;;;;;1.23;0.60;;;;;;;3.62;79.02;100510.16;5080916;28;20223;-71
2021/03/28 08:30:43;;;;;;;0.30;0.27;;;;;;;3.58;78.78;100517.41;5071104;28;20709;-70
2021/03/28 08:33:53;;;;;;;5.30;3.90;;;;;;;3.59;78.90;100519.13;5084489;28;20254;-69
2021/03/28 08:36:59;;;;;;;2.83;2.50;;;;;;;3.64;78.85;100522.44;5073779;28;20188;-70
2021/03/28 08:39:53;;;;;;;3.00;1.93;;;;;;;3.75;78.95;100532.63;5061309;28;20209;-70
2021/03/28 08:42:53;;;;;;;4.70;1.60;;;;;;;3.75;78.59;100545.91;5084565;28;20292;-70
2021/03/28 08:45:30;;;;;;;2.90;2.63;;;;;;;3.68;78.55;100532.03;5075036;28;20217;-70
2021/03/28 08:48:33;;;;;;;1.37;1.27;;;;;;;3.82;78.27;100559.78;5070771;28;20807;-70
2021/03/28 08:51:23;;;;;;;3.03;1.10;;;;;;;3.84;78.40;100555.25;5076585;28;20667;-70
2021/03/28 08:54:12;;;;;;;2.83;2.23;;;;;;;3.87;78.70;100568.41;5082233;28;20220;-71
2021/03/28 08:56:57;;;;;;;7.30;3.20;;;;;;;4.00;78.08;100564.31;5079182;28;20200;-70
2021/03/28 08:59:38;;;;;;;4.10;1.60;;;;;;;4.02;78.01;100571.28;5076044;28;20621;-70
2021/03/28 09:02:24;;;;;;;4.03;1.40;;;;;;;3.97;77.47;100565.28;5076167;28;20620;-70
2021/03/28 09:05:02;;;;;;;3.03;2.00;;;;;;;4.09;77.35;100573.66;5076231;28;20759;-72
2021/03/28 09:07:41;;;;;;;1.63;1.23;;;;;;;4.12;77.67;100558.44;5078001;28;20200;-71
2021/03/28 09:10:38;;;;;;;8.60;2.03;;;;;;;4.09;77.73;100576.31;5074263;28;20659;-71
2021/03/28 09:13:24;;;;;;;6.80;3.03;;;;;;;4.05;77.40;100578.25;5079267;28;20279;-70
2021/03/28 09:16:00;;;;;;;6.23;0.83;;;;;;;4.18;77.10;100575.91;5074488;28;20276;-71
2021/03/28 09:18:43;;;;;;;9.33;1.27;;;;;;;4.15;77.09;100591.97;5076098;28;20193;-70
2021/03/28 09:21:39;;;;;;;1.83;0.73;;;;;;;4.18;77.39;100600.69;5079586;28;20189;-70
2021/03/28 09:24:21;;;;;;;3.20;0.87;;;;;;;4.18;76.96;100589.19;5077518;28;20585;-71
2021/03/28 09:27:15;;;;;;;1.50;0.70;;;;;;;4.22;77.20;100596.09;5077910;28;20212;-71
2021/03/28 09:29:57;;;;;;;0.93;0.90;;;;;;;4.20;77.04;100603.25;5077099;28;20201;-70
2021/03/28 09:32:49;;;;;;;1.83;0.70;;;;;;;4.18;77.17;100606.00;5079644;28;20223;-70
2021/03/28 09:35:48;;;;;;;2.73;1.17;;;;;;;4.13;78.06;100607.13;5074929;28;20213;-70
2021/03/28 09:38:50;;;;;;;1.60;0.90;;;;;;;4.16;77.56;100613.16;5073926;28;20687;-70
2021/03/28 09:41:36;;;;;;;4.73;0.80;;;;;;;4.19;77.53;100613.03;5063749;28;20352;-70
2021/03/28 09:44:17;;;;;;;9.50;1.37;;;;;;;4.30;77.20;100626.75;5074186;28;20711;-71
2021/03/28 09:46:53;;;;;;;2.00;0.80;;;;;;;4.31;77.14;100625.81;5071396;28;20220;-70
2021/03/28 09:49:52;;;;;;;1.27;0.90;;;;;;;4.40;77.21;100631.63;5071108;28;20228;-70
2021/03/28 09:52:36;;;;;;;10.43;1.07;;;;;;;4.44;76.94;100628.78;5077250;28;20566;-70
2021/03/28 09:55:35;;;;;;;1.90;0.90;;;;;;;4.50;77.32;100638.25;5071186;28;20498;-70
2021/03/28 09:58:44;;;;;;;4.63;1.07;;;;;;;4.46;76.89;100626.03;5070742;28;20196;-70
2021/03/28 10:01:27;;;;;;;2.63;1.00;;;;;;;4.59;76.53;100649.38;5069493;28;20204;-69
2021/03/28 10:04:01;;;;;;;5.60;1.30;;;;;;;4.55;76.61;100658.41;5072956;28;20209;-71
2021/03/28 10:06:30;;;;;;;3.23;0.83;;;;;;;4.68;75.88;100656.06;5074803;28;20236;-68
2021/03/28 10:09:01;;;;;;;0.90;0.90;;;;;;;4.71;75.72;100652.41;5075036;28;20288;-68
2021/03/28 10:11:37;;;;;;;5.63;1.20;;;;;;;4.71;75.94;100669.22;5075529;28;20662;-69
2021/03/28 10:14:18;;;;;;;1.70;0.83;;;;;;;4.74;76.41;100661.09;5077424;28;20601;-69
2021/03/28 10:16:53;;;;;;;1.40;0.80;;;;;;;4.81;75.66;100667.00;5072483;28;20193;-69
2021/03/28 10:19:26;;;;;;;0.80;0.70;;;;;;;4.84;75.63;100659.75;5075820;28;20521;-71
2021/03/28 10:22:37;;;;;;;4.07;1.33;;;;;;;4.90;75.14;100661.28;5070087;28;20441;-72
2021/03/28 10:25:30;;;;;;;3.90;1.07;;;;;;;4.91;75.26;100657.69;5072447;28;20683;-71
2021/03/28 10:28:38;;;;;;;3.63;0.67;;;;;;;4.97;75.39;100665.38;5075773;28;20197;-69
2021/03/28 10:31:19;;;;;;;626.00;254.90;;;;;;;4.98;75.25;100667.97;5067623;28;20205;-69
2021/03/28 10:34:16;;;;;;;51.07;18.63;;;;;;;5.10;74.88;100665.69;5072827;28;20215;-69
2021/03/28 10:36:53;;;;;;;9.97;4.23;;;;;;;5.07;75.73;100666.69;5072857;28;20208;-72
2021/03/28 10:39:43;;;;;;;6.37;2.73;;;;;;;5.13;76.37;100669.06;5070812;28;20200;-71
2021/03/28 10:42:42;;;;;;;2.20;1.57;;;;;;;5.24;75.77;100663.25;5070787;28;20280;-70
2021/03/28 10:45:35;;;;;;;28.37;4.83;;;;;;;5.34;74.53;100664.53;5075421;28;20542;-69
2021/03/28 10:48:40;;;;;;;4.53;1.67;;;;;;;5.40;74.67;100672.22;5071259;28;20228;-69
2021/03/28 10:51:44;;;;;;;2.03;1.53;;;;;;;5.44;74.85;100683.59;5075802;28;20685;-69
2021/03/28 10:54:46;;;;;;;1.90;1.00;;;;;;;5.49;75.12;100678.91;5072078;28;20228;-69
2021/03/28 10:57:54;;;;;;;3.47;1.87;;;;;;;5.58;74.71;100684.66;5071144;28;20197;-69
2021/03/28 11:01:01;;;;;;;5.73;1.10;;;;;;;5.64;74.62;100683.50;5072459;28;20198;-69
2021/03/28 11:04:14;;;;;;;5.50;2.23;;;;;;;5.69;74.08;100686.81;5076870;28;20193;-69
2021/03/28 11:06:55;;;;;;;6.57;2.20;;;;;;;5.42;73.65;100629.53;5070759;28;20233;-69
2021/03/28 11:09:56;;;;;;;2.17;0.97;;;;;;;5.86;73.37;100686.00;5076462;28;20194;-69
2021/03/28 11:12:37;;;;;;;0.80;0.80;;;;;;;5.89;73.28;100684.06;5077317;28;20261;-69
2021/03/28 11:15:24;;;;;;;1.23;0.73;;;;;;;5.96;73.13;100694.41;5075653;28;20204;-69
2021/03/28 11:18:20;;;;;;;0.87;0.73;;;;;;;6.01;73.25;100687.06;5079718;28;20202;-69
2021/03/28 11:20:55;;;;;;;0.83;0.83;;;;;;;6.06;72.89;100685.00;5075352;28;20656;-71
2021/03/28 11:23:42;;;;;;;2.43;1.10;;;;;;;6.22;72.27;100688.66;5080393;28;20193;-69
2021/03/28 11:26:51;;;;;;;1.80;0.70;;;;;;;6.30;72.06;100699.78;5074725;28;20300;-69
2021/03/28 11:29:38;;;;;;;1.40;1.30;;;;;;;6.39;71.25;100696.63;5076144;28;20283;-69
2021/03/28 11:32:20;;;;;;;1.87;1.07;;;;;;;6.54;71.00;100703.00;5069185;28;20196;-69
2021/03/28 11:35:01;;;;;;;2.23;0.90;;;;;;;6.43;71.27;100682.22;5077214;28;20197;-70
2021/03/28 11:37:40;;;;;;;4.57;1.00;;;;;;;6.71;70.19;100699.44;5074844;28;20229;-69
2021/03/28 11:40:31;;;;;;;2.40;0.70;;;;;;;6.81;69.69;100706.91;5075161;28;20209;-69
2021/03/28 11:43:25;;;;;;;3.60;0.90;;;;;;;6.86;69.83;100709.31;5073427;28;20272;-69
2021/03/28 11:46:14;;;;;;;0.80;0.80;;;;;;;6.88;69.68;100709.25;5077146;28;20216;-69
2021/03/28 11:48:46;;;;;;;4.80;0.67;;;;;;;7.01;68.81;100713.81;5073567;28;20198;-70
2021/03/28 11:51:22;;;;;;;2.97;1.00;;;;;;;7.06;69.24;100713.59;5074152;28;20225;-69
2021/03/28 11:53:55;;;;;;;4.70;0.97;;;;;;;6.93;68.40;100673.34;5075603;28;20513;-69
2021/03/28 11:56:44;;;;;;;2.67;0.90;;;;;;;7.34;67.64;100703.13;5074514;28;20616;-73
2021/03/28 11:59:33;;;;;;;0.70;0.70;;;;;;;7.41;67.53;100717.03;5072456;28;20193;-71
2021/03/28 12:02:18;;;;;;;0.73;0.73;;;;;;;7.52;66.42;100719.94;5070526;28;20207;-69
2021/03/28 12:04:47;;;;;;;1.00;0.60;;;;;;;7.57;66.51;100711.69;5075907;28;20204;-70
2021/03/28 12:07:28;;;;;;;2.37;0.87;;;;;;;7.71;66.08;100719.81;5075012;28;20253;-70
2021/03/28 12:10:25;;;;;;;1.00;0.80;;;;;;;7.81;66.37;100725.47;5077658;28;20282;-70
2021/03/28 12:13:20;;;;;;;2.17;0.50;;;;;;;7.91;65.18;100710.63;5074666;28;20211;-69
2021/03/28 12:16:06;;;;;;;2.00;0.70;;;;;;;7.96;64.63;100704.09;5070426;28;20201;-69
2021/03/28 12:18:56;;;;;;;1.77;0.90;;;;;;;8.13;64.54;100731.66;5073779;28;20679;-70
2021/03/28 12:21:33;;;;;;;4.57;0.70;;;;;;;7.92;64.65;100689.16;5076289;28;20654;-72
2021/03/28 12:24:04;;;;;;;1.73;0.80;;;;;;;8.24;63.62;100726.53;5078413;28;20203;-72
2021/03/28 12:26:48;;;;;;;3.27;0.97;;;;;;;8.25;63.54;100730.94;5075463;28;20220;-69
2021/03/28 12:29:35;;;;;;;2.93;0.90;;;;;;;8.29;64.21;100727.16;5072196;28;20664;-71
2021/03/28 12:32:44;;;;;;;1.13;1.00;;;;;;;8.37;64.75;100724.91;5072037;28;20233;-71
2021/03/28 12:35:17;;;;;;;1.27;1.17;;;;;;;8.52;64.23;100725.81;5080918;28;20633;-72
2021/03/28 12:37:47;;;;;;;2.10;0.80;;;;;;;8.51;63.72;100716.91;5071745;28;20205;-72
2021/03/28 12:40:31;;;;;;;0.70;0.70;;;;;;;8.68;63.87;100734.66;5073914;28;20728;-72
2021/03/28 12:43:02;;;;;;;107.57;82.63;;;;;;;8.89;63.59;100730.69;5075639;28;20282;-72
2021/03/28 12:45:39;;;;;;;50.30;18.67;;;;;;;9.21;61.73;100730.53;5083731;28;20239;-72
2021/03/28 12:48:30;;;;;;;46.73;15.23;;;;;;;9.48;61.77;100726.06;5071943;28;20205;-72
2021/03/28 12:50:59;;;;;;;5.20;2.30;;;;;;;9.64;60.86;100716.09;5073924;28;20198;-72
2021/03/28 12:53:32;;;;;;;3.67;2.40;;;;;;;10.04;59.89;100734.09;5079013;28;20261;-72
2021/03/28 12:56:01;;;;;;;2.40;0.83;;;;;;;10.24;58.90;100741.75;5076150;28;20709;-71
2021/03/28 12:58:42;;;;;;;2.40;1.33;;;;;;;10.37;58.57;100736.41;5078378;28;20235;-72
2021/03/28 13:01:27;;;;;;;2.70;0.80;;;;;;;10.27;57.96;100737.03;5076649;28;20260;-71
2021/03/28 13:04:09;;;;;;;1.03;0.80;;;;;;;10.39;58.30;100745.22;5076126;28;20223;-72
2021/03/28 13:06:45;;;;;;;0.63;0.63;;;;;;;10.39;58.52;100751.44;5075444;28;20287;-73
2021/03/28 13:09:27;;;;;;;0.77;0.77;;;;;;;10.46;58.11;100746.53;5076208;28;20210;-73
2021/03/28 13:11:57;;;;;;;2.47;1.03;;;;;;;10.55;58.87;100743.22;5073814;28;20221;-73